createdAt,value
2017-02-20T00:00:59.919Z,0
2017-02-20T00:02:10.639Z,0
2017-02-20T00:03:20.972Z,0
2017-02-20T00:04:31.697Z,0
2017-02-20T00:05:42.425Z,0
2017-02-20T00:06:53.139Z,0
2017-02-20T00:08:03.859Z,0
2017-02-20T00:09:14.605Z,0
2017-02-20T00:10:24.922Z,0
2017-02-20T00:11:35.633Z,0
2017-02-20T00:12:46.332Z,0
2017-02-20T00:13:57.030Z,0
2017-02-20T00:15:07.748Z,0
2017-02-20T00:16:18.443Z,0
2017-02-20T00:17:29.150Z,0
2017-02-20T00:18:39.888Z,0
2017-02-20T00:19:50.597Z,0
2017-02-20T00:21:01.312Z,0
2017-02-20T00:22:11.613Z,0
2017-02-20T00:23:22.307Z,0
2017-02-20T00:24:33.019Z,0
2017-02-20T00:25:43.728Z,0
2017-02-20T00:26:54.439Z,0
2017-02-20T00:28:05.150Z,0
2017-02-20T00:29:15.460Z,0
2017-02-20T00:30:26.166Z,0
2017-02-20T00:31:36.873Z,0
2017-02-20T00:32:47.593Z,0
2017-02-20T00:33:58.308Z,0
2017-02-20T00:35:09.036Z,0
2017-02-20T00:36:19.374Z,0
2017-02-20T00:37:30.084Z,0
2017-02-20T00:38:40.806Z,0
2017-02-20T00:39:51.516Z,0
2017-02-20T00:41:02.237Z,0
2017-02-20T00:42:12.955Z,0
2017-02-20T00:43:23.655Z,0
2017-02-20T00:44:34.379Z,0
2017-02-20T00:45:45.112Z,0
2017-02-20T00:46:55.818Z,0
2017-02-20T00:48:06.531Z,0
2017-02-20T00:49:16.446Z,0
2017-02-20T00:50:27.181Z,0
2017-02-20T00:51:37.901Z,0
2017-02-20T00:52:48.614Z,0
2017-02-20T00:53:58.927Z,0
2017-02-20T00:55:09.636Z,0
2017-02-20T00:56:19.943Z,0
2017-02-20T00:57:30.254Z,0
2017-02-20T00:58:40.958Z,0
2017-02-20T00:59:51.655Z,0
2017-02-20T01:01:02.384Z,0
2017-02-20T01:02:12.702Z,0
2017-02-20T01:03:23.409Z,0
2017-02-20T01:04:34.097Z,0
2017-02-20T01:05:44.823Z,0
2017-02-20T01:06:55.534Z,0
2017-02-20T01:08:06.267Z,0
2017-02-20T01:09:16.587Z,0
2017-02-20T01:10:26.918Z,0
2017-02-20T01:11:37.635Z,0
2017-02-20T01:12:48.335Z,0
2017-02-20T01:13:59.037Z,0
2017-02-20T01:15:09.755Z,0
2017-02-20T01:16:20.458Z,0
2017-02-20T01:17:31.172Z,0
2017-02-20T01:18:41.095Z,0
2017-02-20T01:19:51.799Z,0
2017-02-20T01:21:02.519Z,0
2017-02-20T01:22:12.860Z,0
2017-02-20T01:23:23.197Z,0
2017-02-20T01:24:33.510Z,0
2017-02-20T01:25:43.809Z,0
2017-02-20T01:26:54.526Z,0
2017-02-20T01:28:05.281Z,0
2017-02-20T01:29:15.596Z,0
2017-02-20T01:30:26.296Z,0
2017-02-20T01:31:36.991Z,0
2017-02-20T01:32:47.701Z,0
2017-02-20T01:33:58.042Z,0
2017-02-20T01:35:08.761Z,0
2017-02-20T01:36:19.455Z,0
2017-02-20T01:37:30.178Z,0
2017-02-20T01:38:40.877Z,0
2017-02-20T01:39:51.182Z,0
2017-02-20T01:41:01.893Z,0
2017-02-20T01:42:12.201Z,0
2017-02-20T01:43:22.103Z,0
2017-02-20T01:44:32.815Z,0
2017-02-20T01:45:43.527Z,0
2017-02-20T01:46:54.222Z,0
2017-02-20T01:48:04.925Z,0
2017-02-20T01:49:15.223Z,0
2017-02-20T01:50:25.927Z,0
2017-02-20T01:51:36.644Z,0
2017-02-20T01:52:46.970Z,0
2017-02-20T01:53:57.788Z,0
2017-02-20T01:55:08.508Z,0
2017-02-20T01:56:18.827Z,0
2017-02-20T01:57:29.525Z,0
2017-02-20T01:58:40.216Z,0
2017-02-20T01:59:50.925Z,0
2017-02-20T02:01:01.641Z,0
2017-02-20T02:02:11.939Z,0
2017-02-20T02:03:21.445Z,0
2017-02-20T02:04:32.161Z,0
2017-02-20T02:05:42.850Z,0
2017-02-20T02:06:53.546Z,0
2017-02-20T02:08:04.262Z,0
2017-02-20T02:09:14.988Z,0
2017-02-20T02:10:25.688Z,0
2017-02-20T02:11:36.391Z,0
2017-02-20T02:12:47.104Z,0
2017-02-20T02:13:57.805Z,0
2017-02-20T02:15:08.129Z,0
2017-02-20T02:16:18.435Z,0
2017-02-20T02:17:29.161Z,0
2017-02-20T02:18:39.867Z,0
2017-02-20T02:19:50.572Z,0
2017-02-20T02:21:01.284Z,0
2017-02-20T02:22:11.588Z,0
2017-02-20T02:23:21.889Z,0
2017-02-20T02:24:32.609Z,0
2017-02-20T02:25:43.319Z,0
2017-02-20T02:26:54.032Z,0
2017-02-20T02:28:04.353Z,0
2017-02-20T02:29:14.957Z,0
2017-02-20T02:30:24.866Z,0
2017-02-20T02:31:35.591Z,0
2017-02-20T02:32:46.316Z,0
2017-02-20T02:33:57.037Z,0
2017-02-20T02:35:07.751Z,0
2017-02-20T02:36:17.672Z,0
2017-02-20T02:37:28.378Z,0
2017-02-20T02:38:39.096Z,0
2017-02-20T02:39:49.792Z,0
2017-02-20T02:41:00.517Z,0
2017-02-20T02:42:10.431Z,0
2017-02-20T02:43:21.147Z,0
2017-02-20T02:44:31.880Z,0
2017-02-20T02:45:42.587Z,0
2017-02-20T02:46:53.277Z,0
2017-02-20T02:48:03.985Z,0
2017-02-20T02:49:14.692Z,0
2017-02-20T02:50:25.402Z,0
2017-02-20T02:51:36.110Z,0
2017-02-20T02:52:46.804Z,0
2017-02-20T02:53:57.509Z,0
2017-02-20T02:55:08.226Z,0
2017-02-20T02:56:18.943Z,0
2017-02-20T02:57:29.637Z,0
2017-02-20T02:58:40.333Z,0
2017-02-20T02:59:51.068Z,0
2017-02-20T03:01:01.386Z,0
2017-02-20T03:02:12.088Z,0
2017-02-20T03:03:22.015Z,0
2017-02-20T03:04:32.727Z,0
2017-02-20T03:05:43.435Z,0
2017-02-20T03:06:54.144Z,0
2017-02-20T03:08:04.887Z,0
2017-02-20T03:09:14.785Z,0
2017-02-20T03:10:25.483Z,0
2017-02-20T03:11:36.189Z,0
2017-02-20T03:12:46.905Z,0
2017-02-20T03:13:57.615Z,0
2017-02-20T03:15:07.954Z,0
2017-02-20T03:16:18.652Z,0
2017-02-20T03:17:29.396Z,0
2017-02-20T03:18:40.116Z,0
2017-02-20T03:19:50.842Z,0
2017-02-20T03:21:01.153Z,0
2017-02-20T03:22:11.087Z,0
2017-02-20T03:23:21.805Z,0
2017-02-20T03:24:32.562Z,0
2017-02-20T03:25:43.268Z,0
2017-02-20T03:26:54.021Z,0
2017-02-20T03:28:05.075Z,0
2017-02-20T03:29:15.390Z,0
2017-02-20T03:30:26.083Z,0
2017-02-20T03:31:36.795Z,0
2017-02-20T03:32:47.499Z,0
2017-02-20T03:33:58.204Z,0
2017-02-20T03:35:08.926Z,0
2017-02-20T03:36:18.842Z,0
2017-02-20T03:37:29.567Z,0
2017-02-20T03:38:40.308Z,0
2017-02-20T03:39:54.594Z,0
2017-02-20T03:41:05.324Z,0
2017-02-20T03:42:15.637Z,0
2017-02-20T03:43:26.331Z,0
2017-02-20T03:44:37.035Z,0
2017-02-20T03:45:47.763Z,0
2017-02-20T03:46:58.068Z,0
2017-02-20T03:48:08.397Z,0
2017-02-20T03:49:19.115Z,0
2017-02-20T03:50:29.814Z,0
2017-02-20T03:51:40.551Z,0
2017-02-20T03:52:51.266Z,0
2017-02-20T03:54:01.965Z,0
2017-02-20T03:55:12.679Z,0
2017-02-20T03:56:22.623Z,0
2017-02-20T03:57:32.936Z,0
2017-02-20T03:58:43.638Z,0
2017-02-20T03:59:54.356Z,0
2017-02-20T04:01:05.060Z,0
2017-02-20T04:02:15.785Z,0
2017-02-20T04:03:26.484Z,0
2017-02-20T04:04:37.215Z,0
2017-02-20T04:05:47.540Z,0
2017-02-20T04:06:58.254Z,0
2017-02-20T04:08:08.976Z,0
2017-02-20T04:09:19.691Z,0
2017-02-20T04:10:30.407Z,0
2017-02-20T04:11:41.122Z,0
2017-02-20T04:12:51.420Z,0
2017-02-20T04:14:02.132Z,0
2017-02-20T04:15:12.447Z,0
2017-02-20T04:16:22.760Z,0
2017-02-20T04:17:33.091Z,0
2017-02-20T04:18:43.792Z,0
2017-02-20T04:19:54.486Z,0
2017-02-20T04:21:04.401Z,0
2017-02-20T04:22:14.313Z,0
2017-02-20T04:23:25.011Z,0
2017-02-20T04:24:35.319Z,0
2017-02-20T04:25:46.029Z,0
2017-02-20T04:26:56.741Z,0
2017-02-20T04:28:07.046Z,0
2017-02-20T04:29:17.372Z,0
2017-02-20T04:30:27.690Z,0
2017-02-20T04:31:38.407Z,0
2017-02-20T04:32:49.107Z,0
2017-02-20T04:33:59.823Z,0
2017-02-20T04:35:10.518Z,0
2017-02-20T04:36:21.219Z,0
2017-02-20T04:37:31.954Z,0
2017-02-20T04:38:42.656Z,0
2017-02-20T04:39:53.377Z,0
2017-02-20T04:41:04.082Z,0
2017-02-20T04:42:14.803Z,0
2017-02-20T04:43:25.511Z,0
2017-02-20T04:44:36.253Z,0
2017-02-20T04:45:46.946Z,0
2017-02-20T04:46:57.670Z,0
2017-02-20T04:48:08.374Z,0
2017-02-20T04:49:18.696Z,0
2017-02-20T04:50:29.418Z,0
2017-02-20T04:51:40.118Z,0
2017-02-20T04:52:50.827Z,0
2017-02-20T04:54:01.542Z,0
2017-02-20T04:55:11.869Z,0
2017-02-20T04:56:22.571Z,0
2017-02-20T04:57:33.271Z,0
2017-02-20T04:58:43.980Z,0
2017-02-20T04:59:54.676Z,0
2017-02-20T05:01:05.388Z,0
2017-02-20T05:02:16.109Z,0
2017-02-20T05:03:26.827Z,0
2017-02-20T05:04:37.147Z,0
2017-02-20T05:05:47.862Z,0
2017-02-20T05:06:58.557Z,0
2017-02-20T05:08:09.295Z,0
2017-02-20T05:09:20.013Z,0
2017-02-20T05:10:30.760Z,0
2017-02-20T05:11:41.087Z,0
2017-02-20T05:12:51.795Z,0
2017-02-20T05:14:02.490Z,0
2017-02-20T05:15:13.196Z,0
2017-02-20T05:16:23.903Z,0
2017-02-20T05:17:34.605Z,0
2017-02-20T05:18:45.312Z,0
2017-02-20T05:19:56.029Z,0
2017-02-20T05:21:06.738Z,0
2017-02-20T05:22:17.439Z,0
2017-02-20T05:23:28.136Z,0
2017-02-20T05:24:38.848Z,0
2017-02-20T05:25:49.164Z,0
2017-02-20T05:26:59.910Z,0
2017-02-20T05:28:10.610Z,0
2017-02-20T05:29:20.914Z,0
2017-02-20T05:30:31.631Z,0
2017-02-20T05:31:41.937Z,0
2017-02-20T05:32:52.657Z,0
2017-02-20T05:34:03.375Z,0
2017-02-20T05:35:14.081Z,0
2017-02-20T05:36:24.383Z,0
2017-02-20T05:37:35.098Z,0
2017-02-20T05:38:45.800Z,0
2017-02-20T05:39:56.500Z,0
2017-02-20T05:41:07.216Z,0
2017-02-20T05:42:17.539Z,0
2017-02-20T05:43:28.264Z,0
2017-02-20T05:44:38.991Z,0
2017-02-20T05:45:49.707Z,0
2017-02-20T05:47:00.460Z,0
2017-02-20T05:48:11.164Z,0
2017-02-20T05:49:21.502Z,0
2017-02-20T05:50:31.798Z,0
2017-02-20T05:51:42.512Z,0
2017-02-20T05:52:53.202Z,0
2017-02-20T05:54:03.951Z,0
2017-02-20T05:55:14.286Z,0
2017-02-20T05:56:25.013Z,0
2017-02-20T05:57:35.711Z,0
2017-02-20T05:58:46.414Z,0
2017-02-20T05:59:57.131Z,0
2017-02-20T06:01:07.835Z,0
2017-02-20T06:02:17.739Z,0
2017-02-20T06:03:28.443Z,0
2017-02-20T06:04:39.169Z,0
2017-02-20T06:05:49.908Z,4
2017-02-20T06:07:00.668Z,4
2017-02-20T06:08:10.585Z,4
2017-02-20T06:09:21.306Z,0
2017-02-20T06:10:32.001Z,4
2017-02-20T06:11:42.736Z,4
2017-02-20T06:12:53.443Z,4
2017-02-20T06:14:04.163Z,8
2017-02-20T06:15:14.466Z,8
2017-02-20T06:16:25.194Z,8
2017-02-20T06:17:35.885Z,12
2017-02-20T06:18:46.603Z,16
2017-02-20T06:19:57.304Z,16
2017-02-20T06:21:08.014Z,16
2017-02-20T06:22:18.321Z,24
2017-02-20T06:23:29.026Z,24
2017-02-20T06:24:39.723Z,28
2017-02-20T06:25:50.029Z,32
2017-02-20T06:27:00.738Z,36
2017-02-20T06:28:11.440Z,44
2017-02-20T06:29:22.152Z,48
2017-02-20T06:30:32.876Z,56
2017-02-20T06:31:43.582Z,64
2017-02-20T06:32:54.293Z,72
2017-02-20T06:34:05.011Z,84
2017-02-20T06:35:15.315Z,96
2017-02-20T06:36:26.042Z,108
2017-02-20T06:37:36.748Z,124
2017-02-20T06:38:47.468Z,136
2017-02-20T06:39:58.173Z,148
2017-02-20T06:41:08.881Z,156
2017-02-20T06:42:19.181Z,168
2017-02-20T06:43:29.896Z,180
2017-02-20T06:44:40.589Z,188
2017-02-20T06:45:51.302Z,196
2017-02-20T06:47:02.024Z,204
2017-02-20T06:48:12.333Z,216
2017-02-20T06:49:22.689Z,232
2017-02-20T06:50:33.417Z,248
2017-02-20T06:51:44.141Z,272
2017-02-20T06:52:54.869Z,292
2017-02-20T06:54:05.583Z,324
2017-02-20T06:55:16.291Z,356
2017-02-20T06:56:27.017Z,392
2017-02-20T06:57:37.724Z,428
2017-02-20T06:58:48.445Z,460
2017-02-20T06:59:58.770Z,488
2017-02-20T07:01:09.486Z,512
2017-02-20T07:02:19.816Z,540
2017-02-20T07:03:29.739Z,560
2017-02-20T07:04:40.466Z,588
2017-02-20T07:05:51.183Z,616
2017-02-20T07:07:01.899Z,648
2017-02-20T07:08:12.216Z,664
2017-02-20T07:09:22.520Z,672
2017-02-20T07:10:33.228Z,656
2017-02-20T07:11:43.944Z,652
2017-02-20T07:12:54.662Z,672
2017-02-20T07:14:05.398Z,696
2017-02-20T07:15:15.721Z,716
2017-02-20T07:16:26.430Z,760
2017-02-20T07:17:37.136Z,816
2017-02-20T07:18:47.842Z,880
2017-02-20T07:19:58.562Z,936
2017-02-20T07:21:09.269Z,976
2017-02-20T07:22:19.978Z,1012
2017-02-20T07:23:30.689Z,1028
2017-02-20T07:24:41.388Z,1056
2017-02-20T07:25:52.106Z,1072
2017-02-20T07:27:02.819Z,1100
2017-02-20T07:28:13.573Z,1136
2017-02-20T07:29:23.884Z,1180
2017-02-20T07:30:34.599Z,1232
2017-02-20T07:31:44.910Z,1284
2017-02-20T07:32:55.621Z,1356
2017-02-20T07:34:06.363Z,1436
2017-02-20T07:35:16.684Z,1484
2017-02-20T07:36:27.402Z,1524
2017-02-20T07:37:38.103Z,1568
2017-02-20T07:38:48.810Z,1576
2017-02-20T07:39:59.516Z,1568
2017-02-20T07:41:10.245Z,1584
2017-02-20T07:42:20.172Z,1620
2017-02-20T07:43:30.882Z,1660
2017-02-20T07:44:41.205Z,1712
2017-02-20T07:45:51.924Z,1776
2017-02-20T07:47:02.658Z,1804
2017-02-20T07:48:12.167Z,1828
2017-02-20T07:49:22.887Z,1864
2017-02-20T07:50:33.600Z,1884
2017-02-20T07:51:43.510Z,1936
2017-02-20T07:52:54.215Z,1972
2017-02-20T07:54:04.929Z,1980
2017-02-20T07:55:15.239Z,2008
2017-02-20T07:56:25.949Z,2056
2017-02-20T07:57:36.670Z,2120
2017-02-20T07:58:47.386Z,2192
2017-02-20T07:59:58.102Z,2260
2017-02-20T08:01:08.827Z,2296
2017-02-20T08:02:19.546Z,2292
2017-02-20T08:03:30.263Z,2336
2017-02-20T08:04:40.973Z,2384
2017-02-20T08:05:51.702Z,2420
2017-02-20T08:07:02.428Z,2488
2017-02-20T08:08:12.751Z,2580
2017-02-20T08:09:23.458Z,2688
2017-02-20T08:10:34.164Z,2764
2017-02-20T08:11:44.902Z,2744
2017-02-20T08:12:55.620Z,2708
2017-02-20T08:14:05.926Z,2668
2017-02-20T08:15:16.227Z,2700
2017-02-20T08:16:26.553Z,2796
2017-02-20T08:17:36.857Z,2840
2017-02-20T08:18:47.569Z,2816
2017-02-20T08:19:58.269Z,2752
2017-02-20T08:21:08.988Z,2676
2017-02-20T08:22:19.313Z,2648
2017-02-20T08:23:29.631Z,2664
2017-02-20T08:24:39.937Z,2764
2017-02-20T08:25:50.631Z,2908
2017-02-20T08:27:00.946Z,2904
2017-02-20T08:28:11.251Z,2824
2017-02-20T08:29:21.949Z,2872
2017-02-20T08:30:32.679Z,2916
2017-02-20T08:31:43.422Z,2944
2017-02-20T08:32:54.137Z,2980
2017-02-20T08:34:04.874Z,3028
2017-02-20T08:35:15.175Z,3056
2017-02-20T08:36:25.886Z,3056
2017-02-20T08:37:36.601Z,3072
2017-02-20T08:38:46.931Z,3152
2017-02-20T08:39:57.236Z,3220
2017-02-20T08:41:07.962Z,3220
2017-02-20T08:42:18.265Z,3204
2017-02-20T08:43:28.977Z,3232
2017-02-20T08:44:39.687Z,3304
2017-02-20T08:45:50.380Z,3400
2017-02-20T08:47:01.113Z,3428
2017-02-20T08:48:11.811Z,3328
2017-02-20T08:49:22.521Z,3188
2017-02-20T08:50:33.234Z,3068
2017-02-20T08:51:43.942Z,2968
2017-02-20T08:52:54.647Z,2876
2017-02-20T08:54:05.359Z,2840
2017-02-20T08:55:15.288Z,2856
2017-02-20T08:56:25.604Z,2856
2017-02-20T08:57:36.307Z,2836
2017-02-20T08:58:47.030Z,2792
2017-02-20T08:59:57.746Z,2768
2017-02-20T09:01:08.478Z,2756
2017-02-20T09:02:18.790Z,2716
2017-02-20T09:03:29.522Z,2640
2017-02-20T09:04:40.255Z,2576
2017-02-20T09:05:50.966Z,2552
2017-02-20T09:07:01.682Z,2572
2017-02-20T09:08:12.416Z,2592
2017-02-20T09:09:23.123Z,2624
2017-02-20T09:10:33.432Z,2684
2017-02-20T09:11:44.159Z,2756
2017-02-20T09:12:54.863Z,2828
2017-02-20T09:14:05.564Z,2872
2017-02-20T09:15:15.477Z,2908
2017-02-20T09:16:26.192Z,2988
2017-02-20T09:17:36.891Z,3104
2017-02-20T09:18:47.639Z,3236
2017-02-20T09:19:57.956Z,3364
2017-02-20T09:21:08.696Z,3464
2017-02-20T09:22:19.394Z,3532
2017-02-20T09:23:30.128Z,3588
2017-02-20T09:24:40.467Z,3624
2017-02-20T09:25:50.370Z,3676
2017-02-20T09:27:00.286Z,3724
2017-02-20T09:28:10.592Z,3764
2017-02-20T09:29:21.301Z,3812
2017-02-20T09:30:32.011Z,3928
2017-02-20T09:31:42.716Z,4052
2017-02-20T09:32:53.418Z,4124
2017-02-20T09:34:04.141Z,4156
2017-02-20T09:35:14.067Z,4176
2017-02-20T09:36:24.766Z,4188
2017-02-20T09:37:35.498Z,4172
2017-02-20T09:38:45.813Z,4164
2017-02-20T09:39:56.119Z,4220
2017-02-20T09:41:06.848Z,4324
2017-02-20T09:42:17.159Z,4404
2017-02-20T09:43:27.870Z,4424
2017-02-20T09:44:38.581Z,4408
2017-02-20T09:45:49.301Z,4380
2017-02-20T09:46:59.606Z,4400
2017-02-20T09:48:09.541Z,4412
2017-02-20T09:49:19.451Z,4424
2017-02-20T09:50:30.171Z,4420
2017-02-20T09:51:40.874Z,4448
2017-02-20T09:52:51.180Z,4516
2017-02-20T09:54:01.892Z,4568
2017-02-20T09:55:12.208Z,4532
2017-02-20T09:56:22.940Z,4512
2017-02-20T09:57:33.670Z,4544
2017-02-20T09:58:44.381Z,4652
2017-02-20T09:59:55.088Z,4772
2017-02-20T10:01:05.799Z,4852
2017-02-20T10:02:16.123Z,4940
2017-02-20T10:03:26.835Z,5024
2017-02-20T10:04:37.559Z,5116
2017-02-20T10:05:47.864Z,5220
2017-02-20T10:06:58.574Z,5356
2017-02-20T10:08:09.273Z,5560
2017-02-20T10:09:19.985Z,5824
2017-02-20T10:10:30.306Z,6120
2017-02-20T10:11:40.231Z,6340
2017-02-20T10:12:50.536Z,6568
2017-02-20T10:14:00.868Z,6800
2017-02-20T10:15:11.592Z,6920
2017-02-20T10:16:21.895Z,6912
2017-02-20T10:17:32.204Z,6752
2017-02-20T10:18:42.940Z,6732
2017-02-20T10:19:53.640Z,6828
2017-02-20T10:21:03.543Z,6860
2017-02-20T10:22:13.847Z,6848
2017-02-20T10:23:24.169Z,6804
2017-02-20T10:24:34.876Z,6760
2017-02-20T10:25:45.188Z,6704
2017-02-20T10:26:55.489Z,6644
2017-02-20T10:28:05.802Z,6660
2017-02-20T10:29:16.531Z,6700
2017-02-20T10:30:26.853Z,6692
2017-02-20T10:31:37.940Z,6672
2017-02-20T10:32:48.257Z,6704
2017-02-20T10:33:58.961Z,6736
2017-02-20T10:35:09.676Z,6836
2017-02-20T10:36:19.989Z,6972
2017-02-20T10:37:30.717Z,7064
2017-02-20T10:38:41.026Z,7148
2017-02-20T10:39:51.732Z,7176
2017-02-20T10:41:02.440Z,7152
2017-02-20T10:42:12.750Z,7104
2017-02-20T10:43:23.065Z,7028
2017-02-20T10:44:33.776Z,6952
2017-02-20T10:45:44.499Z,6884
2017-02-20T10:46:54.802Z,6828
2017-02-20T10:48:05.523Z,6720
2017-02-20T10:49:15.856Z,6564
2017-02-20T10:50:26.178Z,6380
2017-02-20T10:51:36.887Z,6140
2017-02-20T10:52:47.601Z,5868
2017-02-20T10:53:58.304Z,5604
2017-02-20T10:55:09.035Z,5412
2017-02-20T10:56:18.944Z,5332
2017-02-20T10:57:29.652Z,5248
2017-02-20T10:58:40.359Z,5144
2017-02-20T10:59:50.697Z,5060
2017-02-20T11:01:01.003Z,5036
2017-02-20T11:02:11.728Z,5092
2017-02-20T11:03:22.465Z,5156
2017-02-20T11:04:33.180Z,5188
2017-02-20T11:05:43.510Z,5156
2017-02-20T11:06:54.229Z,5076
2017-02-20T11:08:04.936Z,5076
2017-02-20T11:09:15.647Z,5228
2017-02-20T11:10:25.971Z,5416
2017-02-20T11:11:36.287Z,5580
2017-02-20T11:12:46.608Z,5752
2017-02-20T11:13:57.311Z,5944
2017-02-20T11:15:08.020Z,6120
2017-02-20T11:16:17.980Z,6264
2017-02-20T11:17:28.691Z,6400
2017-02-20T11:18:39.428Z,6528
2017-02-20T11:19:49.759Z,6576
2017-02-20T11:21:00.470Z,6488
2017-02-20T11:22:10.792Z,6332
2017-02-20T11:23:21.571Z,6168
2017-02-20T11:24:32.281Z,6040
2017-02-20T11:25:42.998Z,5932
2017-02-20T11:26:53.312Z,5880
2017-02-20T11:28:04.026Z,5856
2017-02-20T11:29:13.942Z,5864
2017-02-20T11:30:24.651Z,5888
2017-02-20T11:31:35.354Z,5844
2017-02-20T11:32:46.065Z,5648
2017-02-20T11:33:56.368Z,5372
2017-02-20T11:35:06.674Z,5116
2017-02-20T11:36:17.427Z,4932
2017-02-20T11:37:28.147Z,4788
2017-02-20T11:38:38.850Z,4688
2017-02-20T11:39:49.551Z,4632
2017-02-20T11:41:00.252Z,4636
2017-02-20T11:42:10.952Z,4692
2017-02-20T11:43:21.664Z,4780
2017-02-20T11:44:32.368Z,4892
2017-02-20T11:45:43.076Z,5008
2017-02-20T11:46:53.787Z,5084
2017-02-20T11:48:04.102Z,5108
2017-02-20T11:49:14.853Z,5064
2017-02-20T11:50:25.560Z,4940
2017-02-20T11:51:36.281Z,4784
2017-02-20T11:52:46.988Z,4656
2017-02-20T11:53:57.689Z,4576
2017-02-20T11:55:07.610Z,4484
2017-02-20T11:56:17.925Z,4392
2017-02-20T11:57:28.229Z,4308
2017-02-20T11:58:38.966Z,4292
2017-02-20T11:59:49.671Z,4372
2017-02-20T12:01:00.012Z,4528
2017-02-20T12:02:10.350Z,4724
2017-02-20T12:03:20.268Z,4908
2017-02-20T12:04:30.965Z,5044
2017-02-20T12:05:41.665Z,5140
2017-02-20T12:06:52.396Z,5172
2017-02-20T12:08:03.101Z,5152
2017-02-20T12:09:13.411Z,5076
2017-02-20T12:10:23.734Z,5080
2017-02-20T12:11:34.453Z,5216
2017-02-20T12:12:44.779Z,5284
2017-02-20T12:13:55.474Z,5200
2017-02-20T12:15:06.224Z,5184
2017-02-20T12:16:16.527Z,5332
2017-02-20T12:17:27.252Z,5440
2017-02-20T12:18:37.585Z,5436
2017-02-20T12:19:47.898Z,5336
2017-02-20T12:20:58.632Z,5284
2017-02-20T12:22:09.363Z,5556
2017-02-20T12:23:21.670Z,6076
2017-02-20T12:24:32.407Z,6532
2017-02-20T12:25:43.137Z,6888
2017-02-20T12:26:53.461Z,7136
2017-02-20T12:28:04.205Z,7480
2017-02-20T12:29:14.514Z,7900
2017-02-20T12:30:25.223Z,8416
2017-02-20T12:31:35.950Z,8684
2017-02-20T12:32:46.275Z,8176
2017-02-20T12:33:56.971Z,7936
2017-02-20T12:35:09.602Z,7852
2017-02-20T12:36:19.530Z,7816
2017-02-20T12:37:29.833Z,7864
2017-02-20T12:38:40.548Z,7816
2017-02-20T12:39:50.855Z,7664
2017-02-20T12:41:01.562Z,7504
2017-02-20T12:42:11.867Z,7292
2017-02-20T12:43:22.576Z,7240
2017-02-20T12:44:33.284Z,7260
2017-02-20T12:45:44.005Z,7276
2017-02-20T12:46:54.319Z,7176
2017-02-20T12:48:05.040Z,6992
2017-02-20T12:49:15.761Z,6840
2017-02-20T12:50:26.461Z,6664
2017-02-20T12:51:37.181Z,6552
2017-02-20T12:52:47.893Z,6352
2017-02-20T12:53:58.616Z,5992
2017-02-20T12:55:09.323Z,5664
2017-02-20T12:56:20.030Z,5304
2017-02-20T12:57:30.747Z,5048
2017-02-20T12:58:41.459Z,4896
2017-02-20T12:59:51.382Z,4840
2017-02-20T13:01:01.715Z,4872
2017-02-20T13:02:12.421Z,5032
2017-02-20T13:03:22.724Z,5124
2017-02-20T13:04:33.450Z,5056
2017-02-20T13:05:44.167Z,5020
2017-02-20T13:06:54.473Z,5020
2017-02-20T13:08:05.187Z,4956
2017-02-20T13:09:15.518Z,4880
2017-02-20T13:10:25.858Z,4928
2017-02-20T13:11:36.171Z,5016
2017-02-20T13:12:46.502Z,5144
2017-02-20T13:13:56.807Z,5196
2017-02-20T13:15:07.524Z,5232
2017-02-20T13:16:17.450Z,5196
2017-02-20T13:17:28.217Z,5128
2017-02-20T13:18:38.949Z,5136
2017-02-20T13:19:49.684Z,5172
2017-02-20T13:21:00.042Z,5236
2017-02-20T13:22:10.792Z,5232
2017-02-20T13:23:21.526Z,5160
2017-02-20T13:24:32.243Z,5004
2017-02-20T13:25:42.971Z,4904
2017-02-20T13:26:53.284Z,4768
2017-02-20T13:28:04.006Z,4780
2017-02-20T13:29:14.709Z,4984
2017-02-20T13:30:25.427Z,5208
2017-02-20T13:31:36.146Z,5540
2017-02-20T13:32:46.465Z,5916
2017-02-20T13:33:56.775Z,6244
2017-02-20T13:35:07.485Z,6312
2017-02-20T13:36:18.186Z,6000
2017-02-20T13:37:28.896Z,5624
2017-02-20T13:38:39.611Z,5204
2017-02-20T13:39:49.943Z,4872
2017-02-20T13:41:00.642Z,4512
2017-02-20T13:42:11.376Z,4396
2017-02-20T13:43:22.087Z,4508
2017-02-20T13:44:32.001Z,4712
2017-02-20T13:45:42.729Z,4980
2017-02-20T13:46:53.462Z,5192
2017-02-20T13:48:04.171Z,5332
2017-02-20T13:49:14.868Z,5520
2017-02-20T13:50:25.581Z,5772
2017-02-20T13:51:35.954Z,6068
2017-02-20T13:52:46.263Z,6116
2017-02-20T13:53:56.171Z,6008
2017-02-20T13:55:06.486Z,5764
2017-02-20T13:56:16.397Z,5664
2017-02-20T13:57:26.716Z,5816
2017-02-20T13:58:37.424Z,6168
2017-02-20T13:59:46.969Z,6848
2017-02-20T14:00:57.692Z,7068
2017-02-20T14:02:08.395Z,7536
2017-02-20T14:03:19.127Z,7996
2017-02-20T14:04:29.847Z,7980
2017-02-20T14:05:40.562Z,7892
2017-02-20T14:06:50.877Z,7908
2017-02-20T14:08:01.570Z,8072
2017-02-20T14:09:12.275Z,8032
2017-02-20T14:10:22.603Z,8060
2017-02-20T14:11:33.314Z,8660
2017-02-20T14:12:44.049Z,12876
2017-02-20T14:13:54.360Z,7560
2017-02-20T14:15:05.085Z,7112
2017-02-20T14:16:15.812Z,6808
2017-02-20T14:17:26.124Z,6924
2017-02-20T14:18:36.428Z,7148
2017-02-20T14:19:47.145Z,7308
2017-02-20T14:20:57.852Z,7308
2017-02-20T14:22:08.163Z,8016
2017-02-20T14:23:18.885Z,7420
2017-02-20T14:24:29.593Z,7284
2017-02-20T14:25:40.310Z,6956
2017-02-20T14:26:51.013Z,6268
2017-02-20T14:28:01.331Z,5784
2017-02-20T14:29:12.055Z,5908
2017-02-20T14:30:22.769Z,7044
2017-02-20T14:31:33.087Z,6540
2017-02-20T14:32:43.798Z,8388
2017-02-20T14:33:54.503Z,6036
2017-02-20T14:35:04.828Z,5136
2017-02-20T14:36:15.533Z,5080
2017-02-20T14:37:26.235Z,6332
2017-02-20T14:38:36.947Z,5552
2017-02-20T14:39:47.671Z,6160
2017-02-20T14:40:58.372Z,6208
2017-02-20T14:42:09.069Z,6272
2017-02-20T14:43:19.379Z,6256
2017-02-20T14:44:30.108Z,6160
2017-02-20T14:45:40.824Z,6164
2017-02-20T14:46:51.536Z,5168
2017-02-20T14:48:02.246Z,4856
2017-02-20T14:49:12.559Z,4572
2017-02-20T14:50:23.271Z,4488
2017-02-20T14:51:34.022Z,4472
2017-02-20T14:52:44.739Z,4460
2017-02-20T14:53:55.434Z,4412
2017-02-20T14:55:05.358Z,4348
2017-02-20T14:56:15.673Z,4244
2017-02-20T14:57:26.392Z,4136
2017-02-20T14:58:37.137Z,3984
2017-02-20T14:59:47.453Z,3824
2017-02-20T15:00:58.176Z,3608
2017-02-20T15:02:08.993Z,3480
2017-02-20T15:03:19.313Z,3380
2017-02-20T15:04:29.645Z,3296
2017-02-20T15:05:40.367Z,3168
2017-02-20T15:06:51.088Z,3000
2017-02-20T15:08:01.810Z,2880
2017-02-20T15:09:12.536Z,2808
2017-02-20T15:10:23.241Z,2744
2017-02-20T15:11:33.969Z,2696
2017-02-20T15:12:44.677Z,2624
2017-02-20T15:13:55.394Z,2500
2017-02-20T15:15:04.902Z,2356
2017-02-20T15:16:15.609Z,2252
2017-02-20T15:17:26.340Z,2200
2017-02-20T15:18:37.048Z,2176
2017-02-20T15:19:47.755Z,2160
2017-02-20T15:20:58.463Z,2148
2017-02-20T15:22:09.184Z,2132
2017-02-20T15:23:19.515Z,2132
2017-02-20T15:24:30.210Z,2132
2017-02-20T15:25:40.942Z,2104
2017-02-20T15:26:51.645Z,2040
2017-02-20T15:28:02.364Z,1952
2017-02-20T15:29:13.070Z,1860
2017-02-20T15:30:23.371Z,1768
2017-02-20T15:31:34.066Z,1672
2017-02-20T15:32:44.787Z,1580
2017-02-20T15:33:55.519Z,1520
2017-02-20T15:35:05.436Z,1468
2017-02-20T15:36:15.751Z,1420
2017-02-20T15:37:26.470Z,1376
2017-02-20T15:38:37.184Z,1336
2017-02-20T15:39:47.511Z,1300
2017-02-20T15:40:57.828Z,1284
2017-02-20T15:42:08.563Z,1284
2017-02-20T15:43:18.878Z,1284
2017-02-20T15:44:29.587Z,1252
2017-02-20T15:45:40.322Z,1196
2017-02-20T15:46:51.026Z,1160
2017-02-20T15:48:01.721Z,1140
2017-02-20T15:49:12.024Z,1112
2017-02-20T15:50:22.724Z,1076
2017-02-20T15:51:33.423Z,1032
2017-02-20T15:52:44.128Z,972
2017-02-20T15:53:54.864Z,908
2017-02-20T15:55:05.215Z,844
2017-02-20T15:56:15.147Z,788
2017-02-20T15:57:25.861Z,720
2017-02-20T15:58:36.569Z,652
2017-02-20T15:59:47.261Z,588
2017-02-20T16:00:57.568Z,532
2017-02-20T16:02:08.280Z,480
2017-02-20T16:03:19.033Z,436
2017-02-20T16:04:29.734Z,396
2017-02-20T16:05:40.459Z,364
2017-02-20T16:06:51.178Z,332
2017-02-20T16:08:01.890Z,304
2017-02-20T16:09:12.605Z,280
2017-02-20T16:10:23.295Z,252
2017-02-20T16:11:34.007Z,228
2017-02-20T16:12:44.725Z,208
2017-02-20T16:13:55.441Z,184
2017-02-20T16:15:05.369Z,164
2017-02-20T16:16:15.278Z,148
2017-02-20T16:17:26.002Z,132
2017-02-20T16:18:36.715Z,116
2017-02-20T16:19:47.021Z,108
2017-02-20T16:20:57.327Z,96